Time;durP1;ratioP1;P1;durP2;ratioP2;P2;SDS_P1;SDS_P2;PMS_P1;PMS_P2;Temp;Humidity;BMP_temperature;BMP_pressure;BME280_temperature;BME280_humidity;BME280_pressure;Samples;Min_cycle;Max_cycle;Signal;HPM_P1;HPM_P2
2022/10/25 00:01:26;;;;;;;9.48;5.78;;;;;;;;;;6306444;28;20051;-66
2022/10/25 00:04:28;;;;;;;9.55;5.63;;;;;;;;;;6305529;28;20170;-65
2022/10/25 00:07:29;;;;;;;8.45;5.50;;;;;;;;;;6304302;28;20275;-65
2022/10/25 00:10:31;;;;;;;9.95;5.63;;;;;;;;;;6301899;28;20217;-65
2022/10/25 00:13:33;;;;;;;10.10;5.07;;;;;;;;;;6304268;28;20044;-65
2022/10/25 00:16:37;;;;;;;10.77;5.35;;;;;;;;;;6308520;28;20086;-65
2022/10/25 00:19:39;;;;;;;9.10;5.70;;;;;;;;;;6299584;28;20324;-65
2022/10/25 00:22:40;;;;;;;6.57;5.05;;;;;;;;;;6306770;28;20233;-65
2022/10/25 00:25:43;;;;;;;10.15;5.13;;;;;;;;;;6302645;28;20402;-65
2022/10/25 00:28:45;;;;;;;11.53;5.60;;;;;;;;;;6297336;28;20372;-65
2022/10/25 00:31:47;;;;;;;9.05;5.57;;;;;;;;;;6304626;28;20109;-65
2022/10/25 00:34:49;;;;;;;8.57;6.40;;;;;;;;;;6303920;28;20117;-65
2022/10/25 00:37:51;;;;;;;10.80;6.85;;;;;;;;;;6303292;28;20055;-66
2022/10/25 00:40:53;;;;;;;11.32;6.80;;;;;;;;;;6303887;28;20078;-65
2022/10/25 00:43:56;;;;;;;10.43;6.93;;;;;;;;;;6304002;28;20101;-65
2022/10/25 00:46:59;;;;;;;11.90;7.22;;;;;;;;;;6307779;28;20197;-65
2022/10/25 00:50:04;;;;;;;13.38;8.15;;;;;;;;;;6303881;28;20118;-65
2022/10/25 00:53:09;;;;;;;12.63;7.60;;;;;;;;;;6302668;28;20086;-65
2022/10/25 00:56:14;;;;;;;9.43;7.22;;;;;;;;;;6301576;28;20098;-66
2022/10/25 00:59:20;;;;;;;11.75;7.22;;;;;;;;;;6304757;28;20048;-65
2022/10/25 01:02:23;;;;;;;10.75;6.90;;;;;;;;;;6306979;28;20106;-65
2022/10/25 01:05:24;;;;;;;12.20;6.45;;;;;;;;;;6304417;28;20120;-65
2022/10/25 01:08:26;;;;;;;10.73;6.57;;;;;;;;;;6303528;28;20086;-66
2022/10/25 01:11:28;;;;;;;11.35;6.57;;;;;;;;;;6302324;28;20060;-67
2022/10/25 01:14:30;;;;;;;10.10;6.43;;;;;;;;;;6303564;28;20130;-66
2022/10/25 01:17:38;;;;;;;9.00;6.22;;;;;;;;;;6309520;28;20097;-67
2022/10/25 01:21:00;;;;;;;9.23;6.47;;;;;;;;;;6307754;28;20093;-67
2022/10/25 01:24:12;;;;;;;9.20;5.80;;;;;;;;;;6307936;28;20082;-68
2022/10/25 01:27:44;;;;;;;9.90;6.10;;;;;;;;;;6306189;28;20044;-67
2022/10/25 01:31:14;;;;;;;11.80;6.68;;;;;;;;;;6304802;28;20063;-66
2022/10/25 01:34:18;;;;;;;11.52;6.13;;;;;;;;;;6308444;28;20105;-66
2022/10/25 01:37:25;;;;;;;9.68;5.82;;;;;;;;;;6304149;28;20263;-65
2022/10/25 01:40:31;;;;;;;9.45;5.90;;;;;;;;;;6315403;28;20079;-64
2022/10/25 01:43:38;;;;;;;10.43;5.55;;;;;;;;;;6313278;28;20052;-65
2022/10/25 01:46:44;;;;;;;9.63;5.32;;;;;;;;;;6312351;28;20043;-65
2022/10/25 01:49:49;;;;;;;9.35;5.28;;;;;;;;;;6311161;28;20267;-64
2022/10/25 01:52:50;;;;;;;11.00;4.82;;;;;;;;;;6306510;28;20286;-65
2022/10/25 01:55:54;;;;;;;8.75;4.57;;;;;;;;;;6300964;28;20063;-64
2022/10/25 01:59:08;;;;;;;8.55;5.00;;;;;;;;;;6305823;28;20093;-65
2022/10/25 02:02:14;;;;;;;6.85;4.60;;;;;;;;;;6303880;28;20287;-65
2022/10/25 02:05:18;;;;;;;8.15;4.70;;;;;;;;;;6302918;28;20374;-65
2022/10/25 02:08:27;;;;;;;9.95;4.63;;;;;;;;;;6304287;28;20106;-64
2022/10/25 02:11:30;;;;;;;9.80;4.70;;;;;;;;;;6303699;28;20063;-65
2022/10/25 02:14:35;;;;;;;8.33;4.33;;;;;;;;;;6306479;28;20100;-64
2022/10/25 02:17:42;;;;;;;7.93;3.88;;;;;;;;;;6307848;28;20829;-65
2022/10/25 02:20:45;;;;;;;6.63;4.35;;;;;;;;;;6305710;28;20390;-64
2022/10/25 02:23:47;;;;;;;8.85;4.28;;;;;;;;;;6311319;28;20264;-65
2022/10/25 02:26:50;;;;;;;5.43;3.60;;;;;;;;;;6314536;28;20340;-65
2022/10/25 02:29:52;;;;;;;3.85;2.95;;;;;;;;;;6313573;28;20336;-64
2022/10/25 02:32:55;;;;;;;5.55;3.08;;;;;;;;;;6311191;28;20093;-63
2022/10/25 02:36:13;;;;;;;5.70;2.75;;;;;;;;;;6307981;28;20052;-64
2022/10/25 02:39:15;;;;;;;4.18;2.50;;;;;;;;;;6313254;28;20219;-64
2022/10/25 02:42:16;;;;;;;3.80;2.45;;;;;;;;;;6308661;28;20274;-65
2022/10/25 02:45:18;;;;;;;6.28;2.63;;;;;;;;;;6313752;28;20113;-64
2022/10/25 02:48:21;;;;;;;3.08;2.10;;;;;;;;;;6309620;28;20378;-64
2022/10/25 02:51:22;;;;;;;4.03;2.47;;;;;;;;;;6308444;28;20052;-64
2022/10/25 02:54:24;;;;;;;3.40;1.98;;;;;;;;;;6306094;28;20044;-64
2022/10/25 02:57:26;;;;;;;4.05;1.88;;;;;;;;;;6305062;28;20052;-64
2022/10/25 03:00:28;;;;;;;4.35;2.00;;;;;;;;;;6302919;28;20122;-63
2022/10/25 03:03:31;;;;;;;3.83;2.13;;;;;;;;;;6302826;28;20382;-64
2022/10/25 03:06:33;;;;;;;3.22;1.67;;;;;;;;;;6305837;28;20274;-64
2022/10/25 03:09:34;;;;;;;3.63;1.90;;;;;;;;;;6305049;28;20052;-64
2022/10/25 03:12:36;;;;;;;3.13;1.90;;;;;;;;;;6303888;28;20103;-64
2022/10/25 03:15:37;;;;;;;3.38;1.85;;;;;;;;;;6305850;28;20071;-64
2022/10/25 03:18:42;;;;;;;3.42;1.83;;;;;;;;;;6305394;28;20228;-64
2022/10/25 03:21:43;;;;;;;4.40;1.83;;;;;;;;;;6305272;28;20048;-63
2022/10/25 03:24:45;;;;;;;5.18;1.77;;;;;;;;;;6306497;28;20048;-63
2022/10/25 03:27:47;;;;;;;5.05;2.53;;;;;;;;;;6304873;28;20051;-64
2022/10/25 03:30:48;;;;;;;4.00;2.15;;;;;;;;;;6308286;28;20056;-64
2022/10/25 03:33:51;;;;;;;4.90;1.88;;;;;;;;;;6304647;28;20048;-64
2022/10/25 03:36:53;;;;;;;4.43;2.17;;;;;;;;;;6303928;28;20075;-64
2022/10/25 03:39:55;;;;;;;4.97;2.03;;;;;;;;;;6306556;28;20048;-64
2022/10/25 03:42:56;;;;;;;3.83;2.20;;;;;;;;;;6305217;28;20043;-64
2022/10/25 03:45:58;;;;;;;4.70;2.15;;;;;;;;;;6303746;28;20069;-64
2022/10/25 03:49:01;;;;;;;4.82;2.13;;;;;;;;;;6304348;28;20052;-64
2022/10/25 03:52:04;;;;;;;8.43;2.30;;;;;;;;;;6304088;28;20430;-64
2022/10/25 03:55:06;;;;;;;3.28;1.98;;;;;;;;;;6304210;28;20129;-64
2022/10/25 03:58:08;;;;;;;4.05;2.97;;;;;;;;;;6305123;28;20060;-63
2022/10/25 04:01:10;;;;;;;3.47;2.40;;;;;;;;;;6304511;28;20051;-64
2022/10/25 04:04:13;;;;;;;6.50;2.90;;;;;;;;;;6304863;28;20185;-63
2022/10/25 04:07:15;;;;;;;6.10;2.38;;;;;;;;;;6304374;28;20121;-64
2022/10/25 04:10:18;;;;;;;3.97;2.25;;;;;;;;;;6301856;28;20082;-64
2022/10/25 04:13:19;;;;;;;4.38;2.50;;;;;;;;;;6304657;28;20449;-65
2022/10/25 04:16:22;;;;;;;4.10;2.28;;;;;;;;;;6304657;28;20074;-64
2022/10/25 04:19:25;;;;;;;5.88;3.20;;;;;;;;;;6304713;28;20044;-64
2022/10/25 04:22:26;;;;;;;5.80;3.40;;;;;;;;;;6304518;28;20333;-69
2022/10/25 04:25:28;;;;;;;5.00;2.97;;;;;;;;;;6305473;28;20105;-64
2022/10/25 04:28:30;;;;;;;4.15;3.17;;;;;;;;;;6304753;28;20052;-64
2022/10/25 04:31:32;;;;;;;7.20;3.20;;;;;;;;;;6301344;28;20093;-64
2022/10/25 04:34:35;;;;;;;9.05;3.45;;;;;;;;;;6302764;28;20052;-64
2022/10/25 04:37:37;;;;;;;5.15;3.25;;;;;;;;;;6299425;28;20056;-64
2022/10/25 04:40:38;;;;;;;5.43;3.30;;;;;;;;;;6301122;28;20051;-64
2022/10/25 04:43:40;;;;;;;5.55;2.97;;;;;;;;;;6304966;28;20048;-64
2022/10/25 04:46:41;;;;;;;5.50;3.95;;;;;;;;;;6305824;28;20285;-64
2022/10/25 04:49:44;;;;;;;5.30;3.38;;;;;;;;;;6301689;28;20122;-64
2022/10/25 04:52:46;;;;;;;5.63;3.35;;;;;;;;;;6305940;28;20339;-64
2022/10/25 04:55:56;;;;;;;7.20;3.55;;;;;;;;;;6309756;28;20078;-64
2022/10/25 04:58:59;;;;;;;7.85;3.50;;;;;;;;;;6311626;28;20113;-64
2022/10/25 05:02:00;;;;;;;6.55;3.10;;;;;;;;;;6307229;28;20332;-64
2022/10/25 05:05:03;;;;;;;7.78;3.55;;;;;;;;;;6306364;28;20741;-66
2022/10/25 05:08:05;;;;;;;5.00;2.85;;;;;;;;;;6304236;28;20274;-66
2022/10/25 05:11:07;;;;;;;11.23;3.67;;;;;;;;;;6311924;28;20048;-63
2022/10/25 05:14:09;;;;;;;5.97;3.72;;;;;;;;;;6309879;28;20106;-64
2022/10/25 05:17:10;;;;;;;7.35;3.75;;;;;;;;;;6307424;28;20113;-64
2022/10/25 05:20:13;;;;;;;9.23;3.75;;;;;;;;;;6309918;28;20056;-64
2022/10/25 05:23:15;;;;;;;8.98;4.20;;;;;;;;;;6311714;28;20081;-64
2022/10/25 05:26:19;;;;;;;10.07;4.28;;;;;;;;;;6310274;28;20064;-64
2022/10/25 05:29:21;;;;;;;7.60;3.72;;;;;;;;;;6304805;28;20075;-64
2022/10/25 05:32:22;;;;;;;8.32;4.32;;;;;;;;;;6314473;28;20082;-64
2022/10/25 05:35:25;;;;;;;6.57;4.30;;;;;;;;;;6311248;28;20074;-64
2022/10/25 05:38:27;;;;;;;10.30;6.00;;;;;;;;;;6308182;28;20055;-64
2022/10/25 05:41:29;;;;;;;8.98;5.15;;;;;;;;;;6305982;28;20065;-64
2022/10/25 05:44:30;;;;;;;12.25;5.38;;;;;;;;;;6312258;28;20097;-64
2022/10/25 05:47:32;;;;;;;10.45;4.75;;;;;;;;;;6308311;28;20101;-64
2022/10/25 05:50:35;;;;;;;21.75;6.55;;;;;;;;;;6310302;28;20347;-65
2022/10/25 05:53:36;;;;;;;18.67;6.63;;;;;;;;;;6311337;28;20096;-65
2022/10/25 05:56:39;;;;;;;21.92;7.35;;;;;;;;;;6314056;28;20309;-65
2022/10/25 05:59:41;;;;;;;16.17;7.63;;;;;;;;;;6310095;28;20329;-65
2022/10/25 06:02:42;;;;;;;11.10;7.20;;;;;;;;;;6311683;28;20128;-65
2022/10/25 06:05:45;;;;;;;17.05;7.13;;;;;;;;;;6308465;28;20056;-66
2022/10/25 06:08:47;;;;;;;18.17;8.18;;;;;;;;;;6297935;28;20090;-65
2022/10/25 06:11:49;;;;;;;15.45;8.60;;;;;;;;;;6301691;28;20075;-66
2022/10/25 06:14:51;;;;;;;16.38;9.88;;;;;;;;;;6306129;28;20048;-66
2022/10/25 06:17:52;;;;;;;18.98;11.23;;;;;;;;;;6302259;28;20044;-66
2022/10/25 06:20:55;;;;;;;20.35;12.60;;;;;;;;;;6306231;28;20052;-65
2022/10/25 06:23:58;;;;;;;19.95;12.02;;;;;;;;;;6309886;28;20044;-65
2022/10/25 06:27:00;;;;;;;21.30;13.20;;;;;;;;;;6303947;28;20126;-65
2022/10/25 06:30:02;;;;;;;22.00;13.20;;;;;;;;;;6309633;28;20067;-66
2022/10/25 06:33:03;;;;;;;21.55;13.57;;;;;;;;;;6305621;28;20342;-67
2022/10/25 06:36:11;;;;;;;21.80;13.23;;;;;;;;;;6305578;28;20056;-65
2022/10/25 06:39:13;;;;;;;22.92;14.27;;;;;;;;;;6307878;28;20130;-65
2022/10/25 06:42:15;;;;;;;29.85;14.63;;;;;;;;;;6305315;28;20348;-65
2022/10/25 06:45:16;;;;;;;24.17;15.38;;;;;;;;;;6307457;28;20048;-66
2022/10/25 06:48:18;;;;;;;25.35;14.77;;;;;;;;;;6303914;28;20056;-65
2022/10/25 06:51:21;;;;;;;24.85;15.30;;;;;;;;;;6311164;28;20068;-65
2022/10/25 06:54:24;;;;;;;;;;;;;;;;;;6306742;28;20037;-65
2022/10/25 06:57:25;;;;;;;24.48;16.02;;;;;;;;;;6304457;28;20143;-64
2022/10/25 07:00:27;;;;;;;24.95;15.38;;;;;;;;;;6303788;28;20045;-65
2022/10/25 07:03:33;;;;;;;25.58;16.27;;;;;;;;;;6302694;28;20132;-65
2022/10/25 07:06:36;;;;;;;25.30;14.73;;;;;;;;;;6306885;28;20052;-65
2022/10/25 07:09:38;;;;;;;25.70;14.80;;;;;;;;;;6309774;28;20060;-65
2022/10/25 07:12:39;;;;;;;23.85;14.13;;;;;;;;;;6305305;28;20040;-65
2022/10/25 07:15:41;;;;;;;22.42;14.63;;;;;;;;;;6308248;28;20052;-65
2022/10/25 07:18:43;;;;;;;21.52;14.02;;;;;;;;;;6308839;28;20148;-65
2022/10/25 07:21:46;;;;;;;22.65;14.02;;;;;;;;;;6306669;28;20189;-66
2022/10/25 07:24:48;;;;;;;23.52;14.20;;;;;;;;;;6304677;28;20052;-65
2022/10/25 07:27:49;;;;;;;21.60;14.48;;;;;;;;;;6305627;28;20101;-66
2022/10/25 07:30:51;;;;;;;24.10;15.32;;;;;;;;;;6305285;28;20098;-66
2022/10/25 07:33:54;;;;;;;30.02;17.85;;;;;;;;;;6304056;28;20064;-66
2022/10/25 07:36:57;;;;;;;25.60;17.00;;;;;;;;;;6304564;28;20056;-65
2022/10/25 07:39:58;;;;;;;26.95;17.55;;;;;;;;;;6309120;28;20045;-65
2022/10/25 07:43:00;;;;;;;24.23;17.73;;;;;;;;;;6301475;28;20229;-66
2022/10/25 07:46:02;;;;;;;30.83;17.75;;;;;;;;;;6302839;28;20082;-65
2022/10/25 07:49:03;;;;;;;29.58;17.85;;;;;;;;;;6304878;28;20044;-66
2022/10/25 07:52:06;;;;;;;27.45;18.50;;;;;;;;;;6309267;28;20274;-65
2022/10/25 07:55:08;;;;;;;29.00;18.73;;;;;;;;;;6308648;28;20044;-65
2022/10/25 07:58:11;;;;;;;24.10;17.98;;;;;;;;;;6303802;28;20056;-65
2022/10/25 08:01:14;;;;;;;30.85;17.95;;;;;;;;;;6304866;28;20336;-65
2022/10/25 08:04:16;;;;;;;;;;;;;;;;;;6306966;28;20244;-65
2022/10/25 08:07:19;;;;;;;30.90;19.27;;;;;;;;;;6303766;28;20212;-65
2022/10/25 08:10:21;;;;;;;32.03;21.55;;;;;;;;;;6305211;28;20109;-65
2022/10/25 08:13:23;;;;;;;30.85;20.48;;;;;;;;;;6304774;28;20209;-65
2022/10/25 08:16:25;;;;;;;36.95;22.38;;;;;;;;;;6304682;28;20055;-63
2022/10/25 08:19:26;;;;;;;34.92;22.17;;;;;;;;;;6307158;28;20044;-64
2022/10/25 08:22:29;;;;;;;37.13;22.65;;;;;;;;;;6304106;28;20324;-65
2022/10/25 08:25:31;;;;;;;38.47;24.30;;;;;;;;;;6301951;28;20122;-65
2022/10/25 08:28:32;;;;;;;41.05;25.17;;;;;;;;;;6301423;28;20071;-65
2022/10/25 08:31:35;;;;;;;35.90;24.75;;;;;;;;;;6293585;28;20045;-64
2022/10/25 08:34:36;;;;;;;42.00;25.58;;;;;;;;;;6296093;28;20049;-64
2022/10/25 08:37:39;;;;;;;38.58;25.77;;;;;;;;;;6302095;28;20052;-65
2022/10/25 08:40:48;;;;;;;40.72;25.60;;;;;;;;;;6305645;28;20057;-65
2022/10/25 08:44:07;;;;;;;38.83;25.58;;;;;;;;;;6300831;28;20106;-65
2022/10/25 08:47:15;;;;;;;46.17;26.40;;;;;;;;;;6305207;28;20052;-65
2022/10/25 08:50:20;;;;;;;46.13;27.27;;;;;;;;;;6302270;28;20053;-63
2022/10/25 08:53:27;;;;;;;55.45;28.98;;;;;;;;;;6303442;28;20048;-66
2022/10/25 08:56:30;;;;;;;53.47;28.45;;;;;;;;;;6305624;28;20072;-65
2022/10/25 08:59:34;;;;;;;46.80;32.03;;;;;;;;;;6302981;28;20109;-65
2022/10/25 09:02:39;;;;;;;88.68;49.60;;;;;;;;;;6302941;28;20446;-66
2022/10/25 09:05:42;;;;;;;185.25;110.20;;;;;;;;;;6302124;28;20052;-66
2022/10/25 09:08:58;;;;;;;146.23;92.65;;;;;;;;;;6301647;28;20385;-67
2022/10/25 09:12:06;;;;;;;90.82;51.65;;;;;;;;;;6300020;28;20044;-67
2022/10/25 09:15:14;;;;;;;49.13;32.85;;;;;;;;;;6302979;28;20056;-67
2022/10/25 09:18:18;;;;;;;49.83;28.75;;;;;;;;;;6300907;28;20347;-65
2022/10/25 09:21:23;;;;;;;52.15;29.13;;;;;;;;;;6305614;28;20052;-67
2022/10/25 09:24:29;;;;;;;46.47;29.02;;;;;;;;;;6303007;28;20355;-67
2022/10/25 09:27:35;;;;;;;42.03;27.25;;;;;;;;;;6306271;28;20052;-68
2022/10/25 09:30:40;;;;;;;43.50;27.33;;;;;;;;;;6304612;28;20050;-67
2022/10/25 09:33:45;;;;;;;42.25;26.63;;;;;;;;;;6302687;28;20082;-67
2022/10/25 09:36:48;;;;;;;40.60;26.35;;;;;;;;;;6303781;28;20118;-67
2022/10/25 09:39:53;;;;;;;43.37;27.43;;;;;;;;;;6305662;28;20082;-67
2022/10/25 09:42:56;;;;;;;41.63;26.42;;;;;;;;;;6307773;28;20117;-67
2022/10/25 09:46:00;;;;;;;40.53;26.30;;;;;;;;;;6307574;28;20045;-67
2022/10/25 09:49:03;;;;;;;;;;;;;;;;;;6310504;28;21293;-67
2022/10/25 09:52:10;;;;;;;43.03;25.52;;;;;;;;;;6306310;28;19958;-67
2022/10/25 09:55:32;;;;;;;36.97;25.70;;;;;;;;;;6307461;28;20083;-67
2022/10/25 09:58:35;;;;;;;38.33;25.08;;;;;;;;;;6309814;28;20348;-67
2022/10/25 10:01:38;;;;;;;42.95;26.38;;;;;;;;;;6308420;28;20044;-67
2022/10/25 10:04:40;;;;;;;;;;;;;;;;;;6305155;28;20052;-67
2022/10/25 10:07:42;;;;;;;47.47;25.20;;;;;;;;;;6304541;28;19994;-67
2022/10/25 10:10:46;;;;;;;44.03;26.33;;;;;;;;;;6308251;28;20056;-67
2022/10/25 10:13:52;;;;;;;37.38;22.75;;;;;;;;;;6305538;28;20282;-67
2022/10/25 10:16:56;;;;;;;39.58;23.98;;;;;;;;;;6310809;28;20044;-67
2022/10/25 10:20:16;;;;;;;42.15;24.90;;;;;;;;;;6308229;28;20299;-67
2022/10/25 10:23:18;;;;;;;38.25;23.33;;;;;;;;;;6305901;28;20882;-67
2022/10/25 10:26:25;;;;;;;36.28;22.77;;;;;;;;;;6307072;28;20044;-67
2022/10/25 10:29:28;;;;;;;34.70;21.85;;;;;;;;;;6306138;28;20097;-67
2022/10/25 10:32:33;;;;;;;38.40;24.65;;;;;;;;;;6303555;28;20307;-67
2022/10/25 10:35:36;;;;;;;37.80;23.95;;;;;;;;;;6310270;28;20063;-66
2022/10/25 10:38:38;;;;;;;35.15;23.70;;;;;;;;;;6303572;28;20044;-66
2022/10/25 10:41:57;;;;;;;32.55;21.73;;;;;;;;;;6305222;28;20056;-66
2022/10/25 10:45:17;;;;;;;35.40;21.65;;;;;;;;;;6303919;28;20047;-66
2022/10/25 10:48:20;;;;;;;31.30;20.80;;;;;;;;;;6305815;28;20057;-66
2022/10/25 10:51:35;;;;;;;32.13;21.08;;;;;;;;;;6305605;28;20037;-65
2022/10/25 10:54:41;;;;;;;31.08;19.98;;;;;;;;;;6304495;28;20082;-66
2022/10/25 10:57:44;;;;;;;26.65;18.60;;;;;;;;;;6306474;28;20052;-66
2022/10/25 11:00:50;;;;;;;29.02;17.77;;;;;;;;;;6303636;28;20291;-66
2022/10/25 11:03:56;;;;;;;26.52;17.73;;;;;;;;;;6306489;28;20108;-66
2022/10/25 11:07:13;;;;;;;24.98;18.00;;;;;;;;;;6305345;28;20341;-66
2022/10/25 11:10:24;;;;;;;22.98;14.75;;;;;;;;;;6305332;28;20052;-68
2022/10/25 11:13:27;;;;;;;22.33;12.55;;;;;;;;;;6304811;28;20064;-66
2022/10/25 11:16:36;;;;;;;39.38;14.13;;;;;;;;;;6305778;28;20048;-67
2022/10/25 11:19:47;;;;;;;17.75;12.15;;;;;;;;;;6306889;28;20056;-66
2022/10/25 11:22:56;;;;;;;19.80;12.18;;;;;;;;;;6302871;28;20063;-66
2022/10/25 11:26:02;;;;;;;21.08;11.57;;;;;;;;;;6306617;28;20169;-66
2022/10/25 11:29:09;;;;;;;17.40;11.35;;;;;;;;;;6305996;28;20117;-67
2022/10/25 11:32:26;;;;;;;13.73;9.27;;;;;;;;;;6304652;28;20089;-67
2022/10/25 11:35:44;;;;;;;12.57;9.27;;;;;;;;;;6304241;28;20048;-66
2022/10/25 11:38:55;;;;;;;15.60;10.15;;;;;;;;;;6304280;28;20109;-67
2022/10/25 11:42:02;;;;;;;15.00;9.13;;;;;;;;;;6307212;28;20090;-67
2022/10/25 11:45:19;;;;;;;19.85;10.77;;;;;;;;;;6301758;28;20086;-66
2022/10/25 11:48:39;;;;;;;17.00;10.65;;;;;;;;;;6306120;28;20102;-67
2022/10/25 11:51:46;;;;;;;14.45;9.23;;;;;;;;;;6306363;28;20106;-66
2022/10/25 11:54:53;;;;;;;14.45;9.52;;;;;;;;;;6303139;28;20051;-67
2022/10/25 11:58:01;;;;;;;13.07;8.63;;;;;;;;;;6302917;28;20204;-66
2022/10/25 12:01:14;;;;;;;12.32;7.40;;;;;;;;;;6304718;28;20078;-66
2022/10/25 12:04:22;;;;;;;;;;;;;;;;;;6302920;28;20045;-66
2022/10/25 12:07:28;;;;;;;17.38;7.38;;;;;;;;;;6304231;28;20223;-65
2022/10/25 12:10:33;;;;;;;26.98;7.28;;;;;;;;;;6305695;28;20339;-66
2022/10/25 12:13:38;;;;;;;17.75;6.13;;;;;;;;;;6301713;28;20082;-66
2022/10/25 12:16:41;;;;;;;13.20;5.95;;;;;;;;;;6304773;28;20056;-66
2022/10/25 12:19:44;;;;;;;9.98;6.53;;;;;;;;;;6305259;28;20051;-66
2022/10/25 12:22:49;;;;;;;19.33;7.00;;;;;;;;;;6302485;28;20162;-65
2022/10/25 12:25:53;;;;;;;9.60;5.85;;;;;;;;;;6304300;28;20060;-66
2022/10/25 12:28:57;;;;;;;8.80;5.13;;;;;;;;;;6303579;28;20147;-66
2022/10/25 12:32:01;;;;;;;11.60;6.72;;;;;;;;;;6306037;28;20044;-67
2022/10/25 12:35:06;;;;;;;10.88;6.93;;;;;;;;;;6306705;28;20048;-66
2022/10/25 12:38:12;;;;;;;10.80;7.43;;;;;;;;;;6301757;28;20079;-66
2022/10/25 12:41:19;;;;;;;14.40;9.10;;;;;;;;;;6307444;28;20143;-67
2022/10/25 12:44:32;;;;;;;15.52;10.10;;;;;;;;;;6302932;28;20068;-66
2022/10/25 12:47:44;;;;;;;16.05;10.02;;;;;;;;;;6301579;28;20060;-67
2022/10/25 12:50:58;;;;;;;13.90;8.98;;;;;;;;;;6304063;28;20060;-67
2022/10/25 12:54:20;;;;;;;14.80;9.10;;;;;;;;;;6303789;28;20267;-67
2022/10/25 12:57:27;;;;;;;12.55;8.02;;;;;;;;;;6304896;28;20049;-67
2022/10/25 13:00:34;;;;;;;15.27;8.05;;;;;;;;;;6304534;28;20052;-67
2022/10/25 13:03:52;;;;;;;13.20;7.22;;;;;;;;;;6303623;28;20060;-67
2022/10/25 13:06:54;;;;;;;11.60;6.53;;;;;;;;;;6303518;28;20044;-67
2022/10/25 13:10:03;;;;;;;12.77;6.25;;;;;;;;;;6305519;28;20386;-67
2022/10/25 13:13:07;;;;;;;12.88;6.70;;;;;;;;;;6303555;28;20332;-67
2022/10/25 13:16:09;;;;;;;10.80;7.45;;;;;;;;;;6305273;28;20060;-67
2022/10/25 13:19:31;;;;;;;14.40;6.15;;;;;;;;;;6312382;28;20083;-67
2022/10/25 13:22:34;;;;;;;12.70;6.78;;;;;;;;;;6306108;28;20067;-66
2022/10/25 13:25:54;;;;;;;;;;;;;;;;;;6310743;28;20101;-68
2022/10/25 13:28:57;;;;;;;8.90;6.03;;;;;;;;;;6309298;28;19924;-67
2022/10/25 13:32:05;;;;;;;14.02;7.93;;;;;;;;;;6308042;28;20048;-67
2022/10/25 13:35:45;;;;;;;12.63;6.55;;;;;;;;;;6301794;28;20040;-67
2022/10/25 13:39:03;;;;;;;14.10;7.93;;;;;;;;;;6302938;28;20068;-65
2022/10/25 13:42:23;;;;;;;11.85;6.57;;;;;;;;;;6303659;28;20053;-67
2022/10/25 13:45:33;;;;;;;12.40;5.72;;;;;;;;;;6303402;28;20076;-66
2022/10/25 13:48:35;;;;;;;11.77;6.50;;;;;;;;;;6307673;28;20074;-65
2022/10/25 13:51:40;;;;;;;9.48;6.35;;;;;;;;;;6310362;28;20060;-65
2022/10/25 13:54:47;;;;;;;8.98;6.07;;;;;;;;;;6308636;28;20068;-65
2022/10/25 13:57:52;;;;;;;15.32;6.32;;;;;;;;;;6310600;28;20120;-65
2022/10/25 14:00:54;;;;;;;9.25;5.63;;;;;;;;;;6306339;28;20141;-65
2022/10/25 14:04:05;;;;;;;10.35;5.88;;;;;;;;;;6308612;28;20102;-65
2022/10/25 14:07:45;;;;;;;10.60;6.20;;;;;;;;;;6310372;28;20135;-65
2022/10/25 14:10:49;;;;;;;11.48;7.07;;;;;;;;;;6306127;28;20097;-66
2022/10/25 14:13:53;;;;;;;13.27;6.10;;;;;;;;;;6304193;28;20312;-67
2022/10/25 14:17:07;;;;;;;10.75;5.63;;;;;;;;;;6299087;28;20097;-68
2022/10/25 14:20:21;;;;;;;79.18;12.77;;;;;;;;;;6298077;28;20052;-67
2022/10/25 14:23:24;;;;;;;40.40;10.52;;;;;;;;;;6308136;28;20355;-68
2022/10/25 14:26:27;;;;;;;21.88;7.85;;;;;;;;;;6305606;28;20096;-67
2022/10/25 14:29:29;;;;;;;12.02;7.28;;;;;;;;;;6304554;28;20097;-67
2022/10/25 14:32:31;;;;;;;15.50;7.78;;;;;;;;;;6302743;28;20060;-67
2022/10/25 14:35:34;;;;;;;17.92;7.70;;;;;;;;;;6298643;28;20279;-67
2022/10/25 14:38:48;;;;;;;13.63;7.60;;;;;;;;;;6297077;28;20056;-66
2022/10/25 14:41:53;;;;;;;21.42;8.85;;;;;;;;;;6301708;28;20106;-67
2022/10/25 14:44:55;;;;;;;14.02;8.20;;;;;;;;;;6301467;28;20055;-67
2022/10/25 14:47:56;;;;;;;16.45;8.05;;;;;;;;;;6305487;28;20429;-68
2022/10/25 14:51:03;;;;;;;13.63;8.45;;;;;;;;;;6299483;28;20052;-67
2022/10/25 14:54:06;;;;;;;15.57;8.55;;;;;;;;;;6305009;28;20044;-69
2022/10/25 14:57:09;;;;;;;;;;;;;;;;;;6302941;28;20102;-65
2022/10/25 15:00:18;;;;;;;14.93;8.98;;;;;;;;;;6300745;28;19924;-67
2022/10/25 15:03:20;;;;;;;19.35;9.25;;;;;;;;;;6296894;28;20052;-63
2022/10/25 15:06:24;;;;;;;17.65;10.35;;;;;;;;;;6298017;28;20330;-63
2022/10/25 15:09:26;;;;;;;22.48;9.57;;;;;;;;;;6293961;28;20130;-62
2022/10/25 15:12:33;;;;;;;22.13;9.30;;;;;;;;;;6298336;28;20271;-62
2022/10/25 15:15:37;;;;;;;14.38;8.85;;;;;;;;;;6301026;28;20049;-62
2022/10/25 15:18:39;;;;;;;15.30;10.00;;;;;;;;;;6313146;28;20036;-63
2022/10/25 15:21:41;;;;;;;18.20;9.77;;;;;;;;;;6309953;28;20056;-64
2022/10/25 15:24:44;;;;;;;18.25;9.98;;;;;;;;;;6301589;28;20056;-62
2022/10/25 15:27:47;;;;;;;16.55;9.80;;;;;;;;;;6305395;28;20236;-63
2022/10/25 15:30:58;;;;;;;;;;;;;;;;;;6299360;28;20113;-65
2022/10/25 15:34:01;;;;;;;19.48;10.82;;;;;;;;;;6308353;28;19924;-63
2022/10/25 15:37:03;;;;;;;16.77;9.85;;;;;;;;;;6305682;28;20098;-64
2022/10/25 15:40:15;;;;;;;15.85;9.93;;;;;;;;;;6306813;28;20109;-64
2022/10/25 15:43:18;;;;;;;18.08;9.73;;;;;;;;;;6309769;28;20492;-63
2022/10/25 15:46:24;;;;;;;17.52;11.00;;;;;;;;;;6309891;28;20090;-64
2022/10/25 15:49:26;;;;;;;18.83;10.75;;;;;;;;;;6301543;28;20143;-63
2022/10/25 15:52:28;;;;;;;17.05;10.85;;;;;;;;;;6303073;28;20055;-63
2022/10/25 15:55:32;;;;;;;16.60;9.43;;;;;;;;;;6305427;28;20107;-64
2022/10/25 15:58:35;;;;;;;14.90;9.50;;;;;;;;;;6303423;28;20072;-63
2022/10/25 16:01:37;;;;;;;16.90;9.55;;;;;;;;;;6303884;28;20397;-64
2022/10/25 16:04:39;;;;;;;16.50;9.37;;;;;;;;;;6300895;28;20052;-64
2022/10/25 16:07:41;;;;;;;17.10;9.77;;;;;;;;;;6305016;28;20843;-64
2022/10/25 16:10:43;;;;;;;21.95;10.82;;;;;;;;;;6299848;28;20120;-64
2022/10/25 16:13:47;;;;;;;16.27;9.82;;;;;;;;;;6301889;28;20060;-64
2022/10/25 16:16:49;;;;;;;18.63;9.68;;;;;;;;;;6299751;28;20287;-64
2022/10/25 16:19:51;;;;;;;20.77;10.63;;;;;;;;;;6304526;28;20059;-64
2022/10/25 16:22:54;;;;;;;16.27;10.13;;;;;;;;;;6304591;28;20375;-63
2022/10/25 16:25:56;;;;;;;18.08;9.73;;;;;;;;;;6302856;28;20554;-64
2022/10/25 16:28:59;;;;;;;17.98;10.02;;;;;;;;;;6296918;28;20045;-63
2022/10/25 16:32:02;;;;;;;20.00;10.60;;;;;;;;;;6303527;28;20093;-64
2022/10/25 16:35:05;;;;;;;20.00;10.93;;;;;;;;;;6304580;28;20075;-63
2022/10/25 16:38:07;;;;;;;16.93;10.53;;;;;;;;;;6304500;28;20067;-63
2022/10/25 16:41:21;;;;;;;16.60;10.13;;;;;;;;;;6303458;28;20052;-63
2022/10/25 16:44:24;;;;;;;17.67;10.07;;;;;;;;;;6293310;28;20298;-63
2022/10/25 16:47:26;;;;;;;17.67;10.02;;;;;;;;;;6296796;28;20360;-63
2022/10/25 16:50:29;;;;;;;17.95;10.02;;;;;;;;;;6305247;28;20056;-63
2022/10/25 16:53:31;;;;;;;19.25;10.55;;;;;;;;;;6299292;28;20124;-63
2022/10/25 16:56:32;;;;;;;18.92;9.75;;;;;;;;;;6303041;28;20282;-63
2022/10/25 16:59:35;;;;;;;19.35;10.15;;;;;;;;;;6304116;28;20074;-63
2022/10/25 17:02:38;;;;;;;22.67;11.50;;;;;;;;;;6298840;28;20137;-65
2022/10/25 17:05:39;;;;;;;19.37;11.00;;;;;;;;;;6299306;28;20333;-64
2022/10/25 17:08:41;;;;;;;17.42;9.85;;;;;;;;;;6301072;28;20044;-65
2022/10/25 17:11:43;;;;;;;17.95;9.93;;;;;;;;;;6305641;28;20052;-65
2022/10/25 17:14:46;;;;;;;16.70;10.45;;;;;;;;;;6306609;28;20076;-63
2022/10/25 17:17:47;;;;;;;17.73;10.65;;;;;;;;;;6306189;28;20241;-65
2022/10/25 17:20:49;;;;;;;21.67;10.57;;;;;;;;;;6300678;28;20074;-65
2022/10/25 17:23:51;;;;;;;22.85;10.45;;;;;;;;;;6301012;28;20063;-66
2022/10/25 17:26:52;;;;;;;16.58;10.77;;;;;;;;;;6302090;28;20090;-66
2022/10/25 17:29:55;;;;;;;17.65;10.38;;;;;;;;;;6301825;28;20107;-66
2022/10/25 17:32:57;;;;;;;17.48;11.13;;;;;;;;;;6302754;28;20060;-66
2022/10/25 17:35:59;;;;;;;17.38;11.18;;;;;;;;;;6305098;28;20052;-66
2022/10/25 17:39:01;;;;;;;20.33;10.82;;;;;;;;;;6305292;28;20090;-66
2022/10/25 17:42:02;;;;;;;18.38;10.77;;;;;;;;;;6302373;28;20107;-66
2022/10/25 17:45:06;;;;;;;16.25;10.45;;;;;;;;;;6302786;28;20283;-65
2022/10/25 17:48:08;;;;;;;18.83;10.50;;;;;;;;;;6309929;28;20059;-67
2022/10/25 17:51:12;;;;;;;15.95;10.75;;;;;;;;;;6299722;28;20068;-66
2022/10/25 17:54:15;;;;;;;17.23;11.05;;;;;;;;;;6301370;28;20059;-66
2022/10/25 17:57:17;;;;;;;18.35;11.07;;;;;;;;;;6298134;28;20058;-65
2022/10/25 18:00:20;;;;;;;18.40;11.15;;;;;;;;;;6302391;28;20056;-66
2022/10/25 18:03:21;;;;;;;16.40;10.75;;;;;;;;;;6310479;28;20214;-66
2022/10/25 18:06:25;;;;;;;24.25;11.52;;;;;;;;;;6310599;28;20259;-66
2022/10/25 18:09:26;;;;;;;15.70;9.82;;;;;;;;;;6312256;28;20052;-67
2022/10/25 18:12:29;;;;;;;21.77;10.82;;;;;;;;;;6309165;28;20044;-67